createdAt,value
2023-04-24T00:01:02.788Z,10.70
2023-04-24T00:03:30.214Z,10.60
2023-04-24T00:05:57.077Z,10.50
2023-04-24T00:08:24.667Z,10.40
2023-04-24T00:10:52.951Z,10.40
2023-04-24T00:13:19.689Z,10.40
2023-04-24T00:15:46.339Z,10.20
2023-04-24T00:18:13.194Z,10.20
2023-04-24T00:20:40.512Z,10.20
2023-04-24T00:23:07.275Z,10.20
2023-04-24T00:25:33.907Z,10.30
2023-04-24T00:28:00.581Z,10.20
2023-04-24T00:30:27.352Z,10.30
2023-04-24T00:32:53.988Z,10.20
2023-04-24T00:35:20.976Z,10.20
2023-04-24T00:37:47.857Z,10.10
2023-04-24T00:40:14.611Z,10.00
2023-04-24T00:42:42.662Z,9.90
2023-04-24T00:45:09.713Z,9.90
2023-04-24T00:47:36.875Z,9.80
2023-04-24T00:50:06.460Z,9.70
2023-04-24T00:52:33.673Z,9.70
2023-04-24T00:55:00.891Z,9.70
2023-04-24T00:57:27.734Z,9.60
2023-04-24T00:59:54.863Z,9.60
2023-04-24T01:02:23.304Z,9.60
2023-04-24T01:04:53.604Z,9.50
2023-04-24T01:07:23.437Z,9.50
2023-04-24T01:09:52.939Z,9.50
2023-04-24T01:12:20.303Z,9.50
2023-04-24T01:14:47.273Z,9.50
2023-04-24T01:17:16.163Z,9.50
2023-04-24T01:19:45.866Z,9.50
2023-04-24T01:22:15.033Z,9.40
2023-04-24T01:24:42.727Z,9.50
2023-04-24T01:27:11.168Z,9.60
2023-04-24T01:29:38.220Z,9.60
2023-04-24T01:32:06.231Z,9.70
2023-04-24T01:34:33.632Z,9.70
2023-04-24T01:37:00.684Z,9.80
2023-04-24T01:39:29.317Z,9.80
2023-04-24T01:41:56.672Z,9.80
2023-04-24T01:44:23.825Z,9.80
2023-04-24T01:46:50.591Z,9.80
2023-04-24T01:49:17.451Z,9.80
2023-04-24T01:51:45.665Z,9.80
2023-04-24T01:54:12.493Z,9.80
2023-04-24T01:56:45.660Z,9.70
2023-04-24T01:59:13.152Z,9.70
2023-04-24T02:01:40.574Z,9.70
2023-04-24T02:04:08.504Z,9.60
2023-04-24T02:06:36.122Z,9.60
2023-04-24T02:09:04.062Z,9.50
2023-04-24T02:11:30.928Z,9.50
2023-04-24T02:13:58.138Z,9.40
2023-04-24T02:16:24.845Z,9.40
2023-04-24T02:18:51.556Z,9.40
2023-04-24T02:21:18.338Z,9.40
2023-04-24T02:23:45.132Z,9.50
2023-04-24T02:26:13.656Z,9.50
2023-04-24T02:28:40.724Z,9.50
2023-04-24T02:31:07.750Z,9.50
2023-04-24T02:33:34.419Z,9.50
2023-04-24T02:36:01.196Z,9.50
2023-04-24T02:38:27.858Z,9.50
2023-04-24T02:40:54.692Z,9.50
2023-04-24T02:43:21.423Z,9.50
2023-04-24T02:45:48.143Z,9.50
2023-04-24T02:48:14.835Z,9.50
2023-04-24T02:50:41.666Z,9.50
2023-04-24T02:53:08.326Z,9.50
2023-04-24T02:55:35.253Z,9.50
2023-04-24T02:58:02.014Z,9.50
2023-04-24T03:00:28.717Z,9.50
2023-04-24T03:02:55.615Z,9.50
2023-04-24T03:05:22.513Z,9.50
2023-04-24T03:07:49.389Z,9.60
2023-04-24T03:10:16.299Z,9.60
2023-04-24T03:12:42.984Z,9.60
2023-04-24T03:15:10.139Z,9.60
2023-04-24T03:17:37.935Z,9.60
2023-04-24T03:20:07.010Z,9.60
2023-04-24T03:22:34.637Z,9.70
2023-04-24T03:25:02.902Z,9.70
2023-04-24T03:27:29.652Z,9.70
2023-04-24T03:30:01.753Z,9.70
2023-04-24T03:32:49.068Z,9.70
2023-04-24T03:35:22.182Z,9.80
2023-04-24T03:37:49.180Z,9.70
2023-04-24T03:40:34.604Z,9.70
2023-04-24T03:43:03.244Z,9.70
2023-04-24T03:45:30.025Z,9.70
2023-04-24T03:47:57.329Z,9.60
2023-04-24T03:50:24.467Z,9.60
2023-04-24T03:52:51.341Z,9.70
2023-04-24T03:55:29.338Z,9.60
2023-04-24T03:57:55.991Z,9.60
2023-04-24T04:00:23.213Z,9.60
2023-04-24T04:03:02.493Z,9.60
2023-04-24T04:05:29.590Z,9.60
2023-04-24T04:07:57.259Z,9.60
2023-04-24T04:10:24.443Z,9.60
2023-04-24T04:12:51.122Z,9.60
2023-04-24T04:15:17.964Z,9.60
2023-04-24T04:17:44.716Z,9.60
2023-04-24T04:20:12.738Z,9.60
2023-04-24T04:22:42.659Z,9.50
2023-04-24T04:25:14.152Z,9.50
2023-04-24T04:27:42.423Z,9.50
2023-04-24T04:30:11.327Z,9.50
2023-04-24T04:32:47.109Z,9.40
2023-04-24T04:35:14.134Z,9.40
2023-04-24T04:37:41.574Z,9.40
2023-04-24T04:40:20.941Z,9.30
2023-04-24T04:42:56.878Z,9.40
2023-04-24T04:45:25.321Z,9.30
2023-04-24T04:48:15.120Z,9.00
2023-04-24T04:50:42.040Z,8.90
2023-04-24T04:53:08.952Z,8.70
2023-04-24T04:55:38.703Z,8.70
2023-04-24T04:58:11.314Z,8.70
2023-04-24T05:00:38.578Z,8.70
2023-04-24T05:03:21.418Z,8.70
2023-04-24T05:05:53.107Z,8.70
2023-04-24T05:08:27.039Z,8.80
2023-04-24T05:10:55.692Z,8.80
2023-04-24T05:13:35.612Z,8.80
2023-04-24T05:16:08.251Z,8.80
2023-04-24T05:18:35.595Z,8.80
2023-04-24T05:21:02.678Z,8.80
2023-04-24T05:23:29.428Z,8.80
2023-04-24T05:25:57.556Z,8.80
2023-04-24T05:28:24.313Z,8.80
2023-04-24T05:31:03.627Z,8.80
2023-04-24T05:33:30.926Z,8.80
2023-04-24T05:35:57.553Z,8.80
2023-04-24T05:38:24.425Z,8.80
2023-04-24T05:40:51.287Z,8.80
2023-04-24T05:43:17.936Z,8.70
2023-04-24T05:45:44.748Z,8.70
2023-04-24T05:48:11.357Z,8.60
2023-04-24T05:50:37.973Z,8.60
2023-04-24T05:53:05.348Z,8.60
2023-04-24T05:55:34.847Z,8.70
2023-04-24T05:58:02.093Z,8.70
2023-04-24T06:00:30.234Z,8.70
2023-04-24T06:03:04.732Z,8.70
2023-04-24T06:05:32.091Z,8.70
2023-04-24T06:07:59.284Z,8.70
2023-04-24T06:10:30.380Z,8.70
2023-04-24T06:13:01.003Z,8.60
2023-04-24T06:15:31.435Z,8.60
2023-04-24T06:18:06.160Z,8.70
2023-04-24T06:20:33.592Z,8.70
2023-04-24T06:23:02.076Z,8.80
2023-04-24T06:25:29.550Z,8.80
2023-04-24T06:27:56.970Z,8.90
2023-04-24T06:30:24.028Z,9.00
2023-04-24T06:32:54.961Z,9.00
2023-04-24T06:35:22.562Z,9.10
2023-04-24T06:37:49.449Z,9.40
2023-04-24T06:40:16.213Z,9.60
2023-04-24T06:42:43.520Z,10.00
2023-04-24T06:45:10.881Z,10.20
2023-04-24T06:47:37.667Z,10.20
2023-04-24T06:50:20.211Z,10.40
2023-04-24T06:53:16.889Z,10.40
2023-04-24T06:55:52.102Z,10.40
2023-04-24T06:58:18.935Z,10.00
2023-04-24T07:00:46.521Z,9.70
2023-04-24T07:03:13.399Z,9.50
2023-04-24T07:05:40.586Z,9.40
2023-04-24T07:08:07.677Z,9.30
2023-04-24T07:10:36.483Z,9.10
2023-04-24T07:13:03.284Z,9.00
2023-04-24T07:15:30.318Z,9.00
2023-04-24T07:17:57.166Z,9.00
2023-04-24T07:20:23.913Z,8.90
2023-04-24T07:22:50.665Z,8.90
2023-04-24T07:25:17.360Z,8.90
2023-04-24T07:27:44.049Z,9.00
2023-04-24T07:30:11.219Z,9.00
2023-04-24T07:32:38.151Z,9.00
2023-04-24T07:35:05.165Z,9.10
2023-04-24T07:37:31.925Z,9.20
2023-04-24T07:39:58.729Z,9.30
2023-04-24T07:42:25.338Z,9.40
2023-04-24T07:44:52.126Z,9.50
2023-04-24T07:47:18.824Z,9.60
2023-04-24T07:49:45.971Z,9.60
2023-04-24T07:52:12.767Z,9.80
2023-04-24T07:54:39.414Z,10.00
2023-04-24T07:57:07.576Z,10.00
2023-04-24T07:59:34.206Z,9.90
2023-04-24T08:02:02.209Z,10.00
2023-04-24T08:04:29.279Z,10.00
2023-04-24T08:06:56.136Z,10.00
2023-04-24T08:09:22.836Z,9.90
2023-04-24T08:11:49.809Z,9.80
2023-04-24T08:14:16.534Z,9.80
2023-04-24T08:16:43.381Z,10.00
2023-04-24T08:19:10.311Z,9.90
2023-04-24T08:21:37.013Z,9.80
2023-04-24T08:24:06.103Z,9.70
2023-04-24T08:26:33.004Z,9.70
2023-04-24T08:28:59.733Z,9.60
2023-04-24T08:31:27.070Z,9.60
2023-04-24T08:33:53.746Z,9.60
2023-04-24T08:36:20.529Z,9.60
2023-04-24T08:38:47.609Z,9.60
2023-04-24T08:41:16.900Z,9.60
2023-04-24T08:43:44.218Z,9.60
2023-04-24T08:46:13.618Z,9.60
2023-04-24T08:48:41.195Z,9.60
2023-04-24T08:51:09.434Z,9.60
2023-04-24T08:53:36.807Z,9.70
2023-04-24T08:56:04.366Z,9.70
2023-04-24T08:58:34.009Z,9.70
2023-04-24T09:01:01.577Z,9.70
2023-04-24T09:03:29.594Z,9.70
2023-04-24T09:05:58.012Z,9.80
2023-04-24T09:08:27.002Z,9.80
2023-04-24T09:10:54.160Z,9.90
2023-04-24T09:13:21.616Z,10.00
2023-04-24T09:15:48.480Z,10.10
2023-04-24T09:18:15.231Z,10.20
2023-04-24T09:21:01.610Z,10.10
2023-04-24T09:23:29.779Z,10.00
2023-04-24T09:25:57.373Z,10.00
2023-04-24T09:28:42.930Z,9.80
2023-04-24T09:31:22.266Z,9.60
2023-04-24T09:33:57.339Z,9.50
2023-04-24T09:36:29.235Z,9.50
2023-04-24T09:39:02.797Z,9.50
2023-04-24T09:41:29.921Z,9.60
2023-04-24T09:43:57.491Z,9.70
2023-04-24T09:46:32.678Z,9.80
2023-04-24T09:49:10.182Z,9.70
2023-04-24T09:51:38.787Z,9.80
2023-04-24T09:54:14.059Z,9.80
2023-04-24T09:56:45.166Z,9.80
2023-04-24T09:59:12.164Z,9.80
2023-04-24T10:01:39.348Z,9.70
2023-04-24T10:04:06.339Z,9.60
2023-04-24T10:06:36.745Z,9.60
2023-04-24T10:09:04.542Z,9.60
2023-04-24T10:11:31.723Z,9.50
2023-04-24T10:13:59.266Z,9.50
2023-04-24T10:16:28.216Z,9.60
2023-04-24T10:18:56.016Z,9.70
2023-04-24T10:21:23.620Z,9.70
2023-04-24T10:23:50.982Z,9.70
2023-04-24T10:26:18.727Z,9.60
2023-04-24T10:28:46.886Z,9.70
2023-04-24T10:31:14.519Z,9.70
2023-04-24T10:33:43.256Z,9.80
2023-04-24T10:36:15.385Z,9.70
2023-04-24T10:38:44.389Z,9.80
2023-04-24T10:41:20.273Z,9.60
2023-04-24T10:43:49.580Z,9.40
2023-04-24T10:46:22.691Z,9.20
2023-04-24T10:48:56.402Z,8.90
2023-04-24T10:51:24.139Z,8.40
2023-04-24T10:53:52.318Z,8.30
2023-04-24T10:56:19.434Z,8.20
2023-04-24T10:58:52.968Z,8.40
2023-04-24T11:01:28.509Z,8.60
2023-04-24T11:04:00.353Z,8.70
2023-04-24T11:06:37.902Z,8.60
2023-04-24T11:09:08.734Z,8.30
2023-04-24T11:11:38.251Z,8.00
2023-04-24T11:14:07.445Z,7.90
2023-04-24T11:16:54.894Z,7.70
2023-04-24T11:19:29.612Z,7.70
2023-04-24T11:22:04.557Z,7.70
2023-04-24T11:24:40.298Z,7.80
2023-04-24T11:27:21.642Z,7.80
2023-04-24T11:29:57.858Z,7.90
2023-04-24T11:32:31.615Z,7.90
2023-04-24T11:35:06.175Z,7.80
2023-04-24T11:37:41.142Z,7.80
2023-04-24T11:40:12.674Z,7.80
2023-04-24T11:42:41.889Z,7.80
2023-04-24T11:45:11.175Z,7.80
2023-04-24T11:47:38.315Z,7.70
2023-04-24T11:50:09.122Z,7.70
2023-04-24T11:52:40.781Z,7.60
2023-04-24T11:55:17.400Z,7.70
2023-04-24T11:57:47.972Z,7.80
2023-04-24T12:00:22.546Z,7.70
2023-04-24T12:02:51.070Z,7.70
2023-04-24T12:05:36.175Z,7.80
2023-04-24T12:08:03.051Z,7.80
2023-04-24T12:10:31.051Z,7.70
2023-04-24T12:12:59.102Z,7.80
2023-04-24T12:15:26.571Z,7.80
2023-04-24T12:17:54.382Z,7.80
2023-04-24T12:20:31.944Z,7.70
2023-04-24T12:23:00.208Z,7.60
2023-04-24T12:25:32.176Z,7.70
2023-04-24T12:28:04.802Z,7.70
2023-04-24T12:30:39.197Z,7.50
2023-04-24T12:33:06.049Z,7.40
2023-04-24T12:35:36.361Z,7.30
2023-04-24T12:38:27.135Z,7.30
2023-04-24T12:41:05.302Z,7.30
2023-04-24T12:43:32.271Z,7.40
2023-04-24T12:46:00.003Z,7.30
2023-04-24T12:48:28.164Z,7.30
2023-04-24T12:50:55.571Z,7.10
2023-04-24T12:53:22.262Z,7.10
2023-04-24T12:55:53.614Z,7.10
2023-04-24T12:58:21.241Z,7.30
2023-04-24T13:00:48.518Z,7.30
2023-04-24T13:03:16.003Z,7.20
2023-04-24T13:05:43.852Z,7.20
2023-04-24T13:08:10.719Z,7.20
2023-04-24T13:10:37.542Z,7.30
2023-04-24T13:13:04.493Z,7.20
2023-04-24T13:15:31.478Z,7.10
2023-04-24T13:17:58.156Z,7.20
2023-04-24T13:20:24.884Z,7.10
2023-04-24T13:22:51.882Z,7.10
2023-04-24T13:25:19.058Z,7.20
2023-04-24T13:27:46.180Z,7.30
2023-04-24T13:30:13.552Z,7.30
2023-04-24T13:32:40.345Z,7.30
2023-04-24T13:35:07.580Z,7.30
2023-04-24T13:37:34.286Z,7.30
2023-04-24T13:40:01.010Z,7.20
2023-04-24T13:42:30.773Z,7.20
2023-04-24T13:44:57.441Z,7.30
2023-04-24T13:47:24.096Z,7.20
2023-04-24T13:49:51.082Z,7.30
2023-04-24T13:52:17.841Z,7.40
2023-04-24T13:54:44.708Z,7.30
2023-04-24T13:57:11.813Z,7.50
2023-04-24T13:59:39.007Z,7.40
2023-04-24T14:02:06.200Z,7.40
2023-04-24T14:04:33.635Z,7.40
2023-04-24T14:07:00.473Z,7.40
2023-04-24T14:09:27.103Z,7.50
2023-04-24T14:11:53.837Z,7.40
2023-04-24T14:14:20.454Z,7.40
2023-04-24T14:16:47.120Z,7.50
2023-04-24T14:19:13.739Z,7.40
2023-04-24T14:21:40.970Z,7.50
2023-04-24T14:24:07.733Z,7.50
2023-04-24T14:26:34.450Z,7.50
2023-04-24T14:29:11.626Z,7.40
2023-04-24T14:31:41.436Z,7.40
2023-04-24T14:34:08.256Z,7.40
2023-04-24T14:36:35.082Z,7.30
2023-04-24T14:39:06.497Z,7.30
2023-04-24T14:41:36.408Z,7.40
2023-04-24T14:44:04.169Z,7.40
2023-04-24T14:46:31.606Z,7.40
2023-04-24T14:48:59.031Z,7.50
2023-04-24T14:51:26.444Z,7.50
2023-04-24T14:53:53.351Z,7.40
2023-04-24T14:56:23.656Z,7.50
2023-04-24T14:58:50.297Z,7.50
2023-04-24T15:01:18.128Z,7.60
2023-04-24T15:03:45.668Z,7.60
2023-04-24T15:06:16.182Z,7.60
2023-04-24T15:08:43.464Z,7.70
2023-04-24T15:11:13.352Z,7.80
2023-04-24T15:13:40.071Z,7.80
2023-04-24T15:16:06.815Z,7.70
2023-04-24T15:18:33.955Z,7.80
2023-04-24T15:21:00.941Z,7.80
2023-04-24T15:23:27.786Z,7.70
2023-04-24T15:25:54.873Z,7.70
2023-04-24T15:28:22.606Z,7.70
2023-04-24T15:30:49.277Z,7.70
2023-04-24T15:33:16.096Z,7.70
2023-04-24T15:35:42.825Z,7.70
2023-04-24T15:38:09.611Z,7.70
2023-04-24T15:40:36.329Z,7.60
2023-04-24T15:43:03.332Z,7.60
2023-04-24T15:45:31.669Z,7.60
2023-04-24T15:47:58.400Z,7.70
2023-04-24T15:50:25.277Z,7.60
2023-04-24T15:52:51.925Z,7.70
2023-04-24T15:55:18.548Z,7.70
2023-04-24T15:57:45.222Z,7.70
2023-04-24T16:00:12.652Z,7.70
2023-04-24T16:02:40.556Z,7.70
2023-04-24T16:05:08.655Z,7.70
2023-04-24T16:07:36.127Z,7.70
2023-04-24T16:10:02.861Z,7.60
2023-04-24T16:12:29.678Z,7.60
2023-04-24T16:14:56.668Z,7.60
2023-04-24T16:17:23.672Z,7.50
2023-04-24T16:19:50.493Z,7.50
2023-04-24T16:22:17.262Z,7.50
2023-04-24T16:24:44.522Z,7.40
2023-04-24T16:27:11.230Z,7.30
2023-04-24T16:29:37.927Z,7.40
2023-04-24T16:32:05.051Z,7.40
2023-04-24T16:34:32.577Z,7.40
2023-04-24T16:36:59.243Z,7.50
2023-04-24T16:39:26.911Z,7.50
2023-04-24T16:41:55.198Z,7.40
2023-04-24T16:44:22.756Z,7.40
2023-04-24T16:46:49.507Z,7.30
2023-04-24T16:49:23.515Z,7.30
2023-04-24T16:51:50.728Z,7.30
2023-04-24T16:54:17.397Z,7.30
2023-04-24T16:56:44.069Z,7.20
2023-04-24T16:59:10.756Z,7.20
2023-04-24T17:01:37.359Z,7.30
2023-04-24T17:04:04.730Z,7.30
2023-04-24T17:06:31.483Z,7.20
2023-04-24T17:09:00.201Z,7.30
2023-04-24T17:11:29.247Z,7.30
2023-04-24T17:13:59.379Z,7.20
2023-04-24T17:16:26.217Z,7.30
2023-04-24T17:18:52.931Z,7.30
2023-04-24T17:21:19.587Z,7.20
2023-04-24T17:23:46.217Z,7.20
2023-04-24T17:26:12.845Z,7.10
2023-04-24T17:28:39.525Z,7.20
2023-04-24T17:31:06.512Z,7.20
2023-04-24T17:33:33.234Z,7.20
2023-04-24T17:36:03.186Z,7.20
2023-04-24T17:38:30.500Z,7.20
2023-04-24T17:40:58.148Z,7.30
2023-04-24T17:43:24.785Z,7.30
2023-04-24T17:45:55.852Z,7.30
2023-04-24T17:48:22.621Z,7.30
2023-04-24T17:50:49.743Z,7.30
2023-04-24T17:53:16.463Z,7.30
2023-04-24T17:55:49.035Z,7.30
2023-04-24T17:58:15.765Z,7.30
2023-04-24T18:00:42.697Z,7.20
2023-04-24T18:03:10.397Z,7.20
2023-04-24T18:05:38.826Z,7.10
2023-04-24T18:08:06.267Z,7.10
2023-04-24T18:10:36.937Z,7.10
2023-04-24T18:13:04.737Z,7.00
2023-04-24T18:15:31.768Z,7.00
2023-04-24T18:17:58.510Z,7.00
2023-04-24T18:20:25.249Z,6.90
2023-04-24T18:22:52.337Z,7.00
2023-04-24T18:25:26.057Z,6.90
2023-04-24T18:27:54.507Z,6.90
2023-04-24T18:30:21.874Z,6.90
2023-04-24T18:32:50.075Z,6.80
2023-04-24T18:35:17.406Z,6.80
2023-04-24T18:37:45.527Z,6.80
2023-04-24T18:40:13.509Z,6.80
2023-04-24T18:42:40.512Z,6.70
2023-04-24T18:45:08.152Z,6.70
2023-04-24T18:47:34.919Z,6.70
2023-04-24T18:50:01.723Z,6.70
2023-04-24T18:52:28.384Z,6.70
2023-04-24T18:54:55.560Z,6.70
2023-04-24T18:57:22.277Z,6.70
2023-04-24T18:59:49.158Z,6.70
2023-04-24T19:02:16.245Z,6.80
2023-04-24T19:04:42.988Z,6.80
2023-04-24T19:07:09.638Z,6.80
2023-04-24T19:09:36.365Z,6.80
2023-04-24T19:12:03.309Z,6.80
2023-04-24T19:14:30.076Z,6.80
2023-04-24T19:16:56.745Z,6.90
2023-04-24T19:19:25.805Z,6.80
2023-04-24T19:21:52.501Z,6.90
2023-04-24T19:24:19.507Z,6.80
2023-04-24T19:26:46.230Z,6.90
2023-04-24T19:29:13.227Z,6.80
2023-04-24T19:31:40.091Z,6.80
2023-04-24T19:34:06.854Z,6.80
2023-04-24T19:36:33.717Z,6.80
2023-04-24T19:39:01.104Z,6.80
2023-04-24T19:41:27.812Z,6.80
2023-04-24T19:43:54.455Z,6.80
2023-04-24T19:46:21.160Z,6.70
2023-04-24T19:48:48.196Z,6.70
2023-04-24T19:51:15.928Z,6.70
2023-04-24T19:53:43.372Z,6.70
2023-04-24T19:56:10.382Z,6.70
2023-04-24T19:58:37.176Z,6.70
2023-04-24T20:01:05.774Z,6.60
2023-04-24T20:03:34.332Z,6.60
2023-04-24T20:06:01.798Z,6.50
2023-04-24T20:08:28.561Z,6.50
2023-04-24T20:10:57.477Z,6.50
2023-04-24T20:13:27.425Z,6.40
2023-04-24T20:15:55.190Z,6.40
2023-04-24T20:18:22.131Z,6.40
2023-04-24T20:20:49.152Z,6.30
2023-04-24T20:23:15.780Z,6.30
2023-04-24T20:25:42.405Z,6.20
2023-04-24T20:28:09.010Z,6.20
2023-04-24T20:30:35.701Z,6.20
2023-04-24T20:33:02.404Z,6.10
2023-04-24T20:35:29.110Z,6.10
2023-04-24T20:37:55.807Z,6.10
2023-04-24T20:40:23.577Z,6.10
2023-04-24T20:42:50.405Z,6.00
2023-04-24T20:45:17.930Z,6.00
2023-04-24T20:47:44.630Z,6.00
2023-04-24T20:50:11.938Z,5.90
2023-04-24T20:52:38.604Z,5.90
2023-04-24T20:55:06.666Z,5.90
2023-04-24T20:57:33.437Z,5.80
2023-04-24T21:00:00.210Z,5.80
2023-04-24T21:02:27.049Z,5.70
2023-04-24T21:04:53.696Z,5.70
2023-04-24T21:07:20.536Z,5.70
2023-04-24T21:09:47.229Z,5.70
2023-04-24T21:12:13.872Z,5.60
2023-04-24T21:14:40.973Z,5.60
2023-04-24T21:17:07.595Z,5.60
2023-04-24T21:19:34.242Z,5.60
2023-04-24T21:22:00.931Z,5.60
2023-04-24T21:24:27.627Z,5.50
2023-04-24T21:26:54.353Z,5.50
2023-04-24T21:29:21.429Z,5.50
2023-04-24T21:31:48.154Z,5.50
2023-04-24T21:34:15.182Z,5.40
2023-04-24T21:36:41.924Z,5.40
2023-04-24T21:39:08.554Z,5.40
2023-04-24T21:41:35.457Z,5.40
2023-04-24T21:44:02.481Z,5.40
2023-04-24T21:46:29.191Z,5.30
2023-04-24T21:48:55.880Z,5.30
2023-04-24T21:51:22.599Z,5.30
2023-04-24T21:53:49.472Z,5.30
2023-04-24T21:56:16.328Z,5.20
2023-04-24T21:58:43.150Z,5.20
2023-04-24T22:01:09.823Z,5.20
2023-04-24T22:03:36.628Z,5.20
2023-04-24T22:06:03.517Z,5.20
2023-04-24T22:08:30.228Z,5.30
2023-04-24T22:10:56.898Z,5.30
2023-04-24T22:13:23.819Z,5.30
2023-04-24T22:15:50.906Z,5.30
2023-04-24T22:18:18.695Z,5.20
2023-04-24T22:20:46.394Z,5.20
2023-04-24T22:23:13.224Z,5.20
2023-04-24T22:25:39.855Z,5.30
2023-04-24T22:28:06.682Z,5.30
2023-04-24T22:30:33.329Z,5.40
2023-04-24T22:33:00.077Z,5.40
2023-04-24T22:35:26.840Z,5.40
2023-04-24T22:37:56.878Z,5.40
2023-04-24T22:40:24.807Z,5.30
2023-04-24T22:42:51.647Z,5.40
2023-04-24T22:45:18.466Z,5.30
2023-04-24T22:47:45.089Z,5.30
2023-04-24T22:50:11.753Z,5.30
2023-04-24T22:52:38.464Z,5.30
2023-04-24T22:55:05.429Z,5.30
2023-04-24T22:57:32.167Z,5.30
2023-04-24T22:59:59.134Z,5.20
2023-04-24T23:02:25.911Z,5.20
2023-04-24T23:04:54.156Z,5.10
2023-04-24T23:07:20.909Z,5.10
2023-04-24T23:09:47.495Z,5.00
2023-04-24T23:12:14.124Z,5.00
2023-04-24T23:14:40.732Z,5.10
2023-04-24T23:17:07.411Z,5.10
2023-04-24T23:19:34.042Z,5.10
2023-04-24T23:22:00.849Z,5.10
2023-04-24T23:24:27.773Z,5.10
2023-04-24T23:26:54.427Z,5.10
2023-04-24T23:29:23.001Z,5.10
2023-04-24T23:31:49.824Z,5.10
2023-04-24T23:34:18.616Z,5.10
2023-04-24T23:36:48.383Z,5.00
2023-04-24T23:39:15.316Z,5.00
2023-04-24T23:41:44.348Z,4.90
2023-04-24T23:44:11.760Z,4.90
2023-04-24T23:46:38.670Z,5.00
2023-04-24T23:49:05.292Z,5.00
2023-04-24T23:51:32.199Z,5.00
2023-04-24T23:53:59.102Z,5.10
2023-04-24T23:56:26.633Z,5.20
2023-04-24T23:58:53.604Z,5.20
